Hovedside
METAR-TAF:

METAR-TAF

Lufthavner :

Flystasjon

Linköping, Sverige

breddegrad: 58-24N, lengdegrad: 015-31E, høyde over havet: 93 m

Gjeldene værobservasjon

Denne rapporten ble laget for 25 minutter siden, klokken 06:20 UTC
Vind 4 kt fra Øst-nordøst
Temperatur -1°C
Luftfuktighet 100%
Trykk 1022 hPa
Sikt: 0150 m
underkjølt tåke

METAR: ESCF 150620Z 07004KT 0150 R01/0800N R19/0500D FZFG VV002 M01/M01 Q1022

Tid: 07:45 (06:45 UTC)

Varsel

Denne rapporten ble laget for 55 minutter siden, klokken 05:50 UTC
Varsel gyldig fra 15. klokken 06 UTC til 15. klokken 14 UTC
Vind 5 kt fra Øst-sørøst
Sikt: 0300 m
i en høyde av 200 ft
underkjølt tåke
Blir
fra 15. klokken 07 UTC til 15. klokken 09 UTC
Sikt: 0300 m
i en høyde av 200 ft
tåke
Sannsynlighet 30%
fra 15. klokken 09 UTC til 15. klokken 14 UTC
Sikt: 5000 m
Brutte skyer i en høyde av 500 ft

TAF: ESCF 150550Z 1506/1514 11005KT 0300 FZFG VV002 BECMG 1507/1509 0300 FG VV002 PROB30 1509/1514 5000 BKN005 NSW RMK MIL

Værobservasjoner og værvarsel for over 4000 flyplasser (METAR- og TAF-rapporter).

Tilgjengelige stasjoner er representert av de røde og gule prikkene på kartet.

Hold musepekeren over prikken for å se navnet på stasjonen.

Klikk så for å se værobservasjoner og -varsler.

For å forandre kartet kan du klikke på den grønne knappen med svart kryss for å zoome inn, på den grønne knappen med strek for å zoome ut, eller på de grønne pilene for å se tilstøtende kart.


METAR-TAF: